Time;durP1;ratioP1;P1;durP2;ratioP2;P2;SDS_P1;SDS_P2;PMS_P1;PMS_P2;Temp;Humidity;BMP_temperature;BMP_pressure;BME280_temperature;BME280_humidity;BME280_pressure;Samples;Min_cycle;Max_cycle;Signal;HPM_P1;HPM_P2
2023/07/20 00:01:22;;;;;;;9.02;4.60;;;20.20;67.80;;;;;;5046588;28;20020;-65
2023/07/20 00:03:54;;;;;;;9.00;4.45;;;20.10;67.70;;;;;;5050076;28;20546;-65
2023/07/20 00:06:27;;;;;;;7.88;4.30;;;20.10;67.80;;;;;;5067461;28;20116;-65
2023/07/20 00:08:56;;;;;;;9.35;5.07;;;20.10;67.90;;;;;;5052626;28;20029;-65
2023/07/20 00:11:27;;;;;;;9.18;5.40;;;20.00;68.00;;;;;;5052355;28;20128;-65
2023/07/20 00:13:53;;;;;;;10.13;4.75;;;20.00;68.10;;;;;;5051955;28;20284;-65
2023/07/20 00:16:19;;;;;;;8.38;4.63;;;19.90;68.10;;;;;;5049889;28;20025;-65
2023/07/20 00:18:45;;;;;;;7.00;4.30;;;19.90;68.20;;;;;;5051135;28;20115;-65
2023/07/20 00:21:11;;;;;;;6.90;4.13;;;19.90;68.30;;;;;;5050553;28;20052;-65
2023/07/20 00:23:38;;;;;;;8.40;4.05;;;19.90;68.40;;;;;;5053507;28;20021;-65
2023/07/20 00:26:03;;;;;;;7.70;3.92;;;19.80;68.50;;;;;;5049425;28;20032;-65
2023/07/20 00:28:29;;;;;;;8.80;4.60;;;19.80;68.60;;;;;;5049730;28;20339;-65
2023/07/20 00:30:55;;;;;;;8.65;4.47;;;19.80;68.70;;;;;;5048542;28;20489;-65
2023/07/20 00:33:20;;;;;;;9.80;4.55;;;19.70;68.70;;;;;;5053911;28;20017;-65
2023/07/20 00:35:46;;;;;;;9.18;4.32;;;19.70;68.80;;;;;;5052654;28;20032;-65
2023/07/20 00:38:12;;;;;;;6.80;3.75;;;19.70;68.90;;;;;;5049315;28;20131;-65
2023/07/20 00:40:39;;;;;;;8.27;4.00;;;19.70;69.00;;;;;;5047646;28;20131;-65
2023/07/20 00:43:05;;;;;;;7.88;4.55;;;19.70;69.10;;;;;;5050519;28;20079;-65
2023/07/20 00:45:32;;;;;;;8.73;4.28;;;19.70;69.10;;;;;;5033373;28;20033;-65
2023/07/20 00:47:58;;;;;;;9.10;3.85;;;19.70;69.20;;;;;;5045585;28;20107;-66
2023/07/20 00:50:26;;;;;;;6.85;3.88;;;19.60;69.20;;;;;;5052038;28;20052;-66
2023/07/20 00:52:52;;;;;;;7.88;3.83;;;19.70;69.40;;;;;;5049376;28;21403;-65
2023/07/20 00:55:19;;;;;;;7.13;4.10;;;19.60;69.40;;;;;;5048901;28;20047;-65
2023/07/20 00:57:45;;;;;;;8.27;4.25;;;19.60;69.50;;;;;;5051787;28;20068;-65
2023/07/20 01:00:12;;;;;;;9.60;3.97;;;19.60;69.60;;;;;;5049896;28;20041;-65
2023/07/20 01:02:38;;;;;;;9.15;4.13;;;19.50;69.80;;;;;;5044780;28;20110;-65
2023/07/20 01:05:06;;;;;;;7.07;3.53;;;19.50;69.90;;;;;;5051893;28;20690;-65
2023/07/20 01:07:38;;;;;;;8.00;3.83;;;19.50;70.10;;;;;;5045474;28;20092;-65
2023/07/20 01:10:05;;;;;;;11.68;4.05;;;19.50;70.30;;;;;;5041423;28;20032;-65
2023/07/20 01:12:41;;;;;;;8.18;3.95;;;19.50;70.30;;;;;;5046130;28;20033;-65
2023/07/20 01:15:07;;;;;;;7.07;3.40;;;19.50;70.40;;;;;;5046492;28;20067;-65
2023/07/20 01:17:34;;;;;;;7.90;3.90;;;19.50;70.40;;;;;;5046437;28;20041;-65
2023/07/20 01:20:00;;;;;;;7.07;3.38;;;19.50;70.60;;;;;;5040618;28;20441;-65
2023/07/20 01:22:29;;;;;;;7.72;3.75;;;19.50;70.70;;;;;;5050302;28;20027;-65
2023/07/20 01:25:13;;;;;;;8.27;3.90;;;19.50;70.80;;;;;;5045978;28;20059;-65
2023/07/20 01:27:51;;;;;;;10.75;4.00;;;19.50;70.80;;;;;;5054040;28;20033;-65
2023/07/20 01:30:56;;;;;;;8.45;3.90;;;19.50;70.90;;;;;;5042912;28;20017;-65
2023/07/20 01:33:23;;;;;;;6.68;3.45;;;19.40;70.90;;;;;;5047007;28;20027;-65
2023/07/20 01:35:55;;;;;;;7.22;3.58;;;19.40;71.00;;;;;;5049178;28;20033;-65
2023/07/20 01:38:22;;;;;;;6.28;3.17;;;19.40;71.20;;;;;;5051834;28;20106;-65
2023/07/20 01:40:49;;;;;;;6.82;3.45;;;19.40;71.20;;;;;;5046680;28;20063;-65
2023/07/20 01:43:16;;;;;;;7.70;3.85;;;19.40;71.20;;;;;;5041001;28;20136;-65
2023/07/20 01:45:42;;;;;;;7.35;3.70;;;19.40;71.20;;;;;;5044736;28;20033;-65
2023/07/20 01:48:08;;;;;;;7.07;3.55;;;19.40;71.40;;;;;;5047299;28;20335;-65
2023/07/20 01:50:34;;;;;;;8.40;3.50;;;19.30;71.50;;;;;;5048265;28;20429;-65
2023/07/20 01:53:01;;;;;;;6.95;3.38;;;19.30;71.60;;;;;;5044552;28;20108;-65
2023/07/20 01:55:27;;;;;;;7.60;3.90;;;19.30;71.70;;;;;;5044294;28;20025;-65
2023/07/20 01:57:55;;;;;;;7.65;3.80;;;19.30;71.70;;;;;;5025930;28;20029;-65
2023/07/20 02:00:23;;;;;;;6.65;3.45;;;19.20;71.80;;;;;;5045790;28;20025;-65
2023/07/20 02:02:50;;;;;;;7.75;3.47;;;19.30;72.00;;;;;;5049347;28;20359;-65
2023/07/20 02:05:16;;;;;;;6.32;3.42;;;19.20;72.00;;;;;;5041690;28;20061;-65
2023/07/20 02:07:43;;;;;;;8.10;3.65;;;19.20;72.00;;;;;;5042939;28;20025;-65
2023/07/20 02:10:09;;;;;;;7.45;3.50;;;19.20;72.10;;;;;;5050003;28;20123;-65
2023/07/20 02:12:35;;;;;;;7.38;3.80;;;19.20;72.10;;;;;;5048206;28;20040;-65
2023/07/20 02:15:03;;;;;;;7.82;3.63;;;19.20;72.30;;;;;;5047971;28;20028;-65
2023/07/20 02:17:28;;;;;;;6.50;3.35;;;19.10;72.30;;;;;;5027055;28;20040;-65
2023/07/20 02:19:57;;;;;;;7.80;3.55;;;19.10;72.40;;;;;;5045775;28;20034;-65
2023/07/20 02:22:23;;;;;;;9.05;3.53;;;19.10;72.40;;;;;;5044408;28;20042;-65
2023/07/20 02:24:50;;;;;;;6.47;3.25;;;19.10;72.40;;;;;;5049057;28;20028;-65
2023/07/20 02:27:16;;;;;;;7.63;3.40;;;19.10;72.40;;;;;;5043435;28;20408;-65
2023/07/20 02:29:42;;;;;;;5.68;3.03;;;19.10;72.40;;;;;;5046312;28;20029;-65
2023/07/20 02:32:10;;;;;;;6.47;3.22;;;19.10;72.50;;;;;;5050132;28;20086;-65
2023/07/20 02:34:37;;;;;;;7.05;3.15;;;19.10;72.60;;;;;;5049560;28;20025;-66
2023/07/20 02:37:03;;;;;;;5.57;2.88;;;19.00;72.50;;;;;;5049651;28;20140;-65
2023/07/20 02:39:28;;;;;;;7.70;2.92;;;19.00;72.40;;;;;;5051237;28;20477;-65
2023/07/20 02:41:54;;;;;;;5.63;2.60;;;19.00;72.50;;;;;;5041277;28;20029;-65
2023/07/20 02:44:20;;;;;;;6.07;2.67;;;19.00;73.10;;;;;;5045240;28;20027;-65
2023/07/20 02:46:46;;;;;;;6.50;2.63;;;19.00;72.40;;;;;;5045288;28;20090;-65
2023/07/20 02:49:12;;;;;;;5.20;2.42;;;18.90;72.30;;;;;;5048499;28;21313;-65
2023/07/20 02:51:38;;;;;;;6.30;2.40;;;18.90;72.30;;;;;;5047124;28;20033;-65
2023/07/20 02:54:03;;;;;;;6.00;2.50;;;18.90;72.30;;;;;;5040388;28;20024;-65
2023/07/20 02:56:29;;;;;;;4.78;1.98;;;18.90;72.30;;;;;;5046424;28;20028;-65
2023/07/20 02:58:55;;;;;;;5.68;2.38;;;18.90;72.30;;;;;;5060496;28;20021;-65
2023/07/20 03:01:21;;;;;;;5.40;2.30;;;18.80;72.30;;;;;;5046726;28;20025;-65
2023/07/20 03:03:47;;;;;;;4.53;2.03;;;18.80;72.40;;;;;;5044815;28;20039;-65
2023/07/20 03:06:16;;;;;;;4.63;2.15;;;18.80;72.40;;;;;;5048428;28;20085;-65
2023/07/20 03:08:53;;;;;;;5.57;2.35;;;18.70;72.50;;;;;;5049226;28;20082;-65
2023/07/20 03:11:23;;;;;;;4.95;2.25;;;18.70;72.50;;;;;;5041202;28;20400;-65
2023/07/20 03:13:52;;;;;;;4.28;1.98;;;18.70;72.60;;;;;;5044582;28;20018;-65
2023/07/20 03:16:19;;;;;;;4.35;2.03;;;18.70;72.60;;;;;;5044522;28;20039;-65
2023/07/20 03:18:45;;;;;;;4.13;2.00;;;18.70;72.60;;;;;;5045669;28;20482;-65
2023/07/20 03:21:11;;;;;;;4.60;2.00;;;18.70;72.60;;;;;;5024492;28;20155;-65
2023/07/20 03:23:38;;;;;;;5.07;2.10;;;18.70;72.60;;;;;;5045241;28;20048;-65
2023/07/20 03:26:04;;;;;;;4.93;2.33;;;18.60;72.50;;;;;;5041200;28;20024;-65
2023/07/20 03:28:31;;;;;;;3.85;1.83;;;18.60;72.50;;;;;;5042729;28;20350;-65
2023/07/20 03:30:57;;;;;;;4.65;2.17;;;18.60;72.50;;;;;;5047216;28;20021;-65
2023/07/20 03:33:31;;;;;;;4.18;2.10;;;18.60;72.50;;;;;;5042123;28;20092;-65
2023/07/20 03:35:58;;;;;;;5.25;1.95;;;18.60;72.60;;;;;;5045117;28;20055;-65
2023/07/20 03:38:25;;;;;;;4.18;2.20;;;18.50;72.60;;;;;;5051045;28;20112;-65
2023/07/20 03:40:52;;;;;;;3.53;1.65;;;18.50;72.60;;;;;;5043402;28;20127;-65
2023/07/20 03:43:18;;;;;;;4.85;2.10;;;18.50;72.70;;;;;;5048794;28;20041;-65
2023/07/20 03:45:45;;;;;;;5.93;2.10;;;18.50;72.70;;;;;;5048697;28;20071;-65
2023/07/20 03:48:12;;;;;;;3.38;1.63;;;18.50;72.70;;;;;;5046129;28;20335;-65
2023/07/20 03:50:39;;;;;;;3.28;1.77;;;18.40;72.60;;;;;;5050148;28;20114;-65
2023/07/20 03:53:05;;;;;;;4.53;2.20;;;18.40;72.70;;;;;;5049084;28;20033;-65
2023/07/20 03:55:30;;;;;;;4.38;1.85;;;18.40;72.70;;;;;;5049315;28;20364;-65
2023/07/20 03:57:57;;;;;;;4.18;1.90;;;18.40;72.70;;;;;;5051279;28;20532;-65
2023/07/20 04:00:23;;;;;;;2.63;1.50;;;18.40;72.70;;;;;;5047974;28;20029;-65
2023/07/20 04:02:49;;;;;;;3.97;1.80;;;18.40;72.70;;;;;;5040696;28;20036;-65
2023/07/20 04:05:15;;;;;;;3.85;1.90;;;18.30;72.70;;;;;;5039012;28;20597;-65
2023/07/20 04:07:40;;;;;;;4.50;2.00;;;18.30;72.80;;;;;;5041847;28;20040;-65
2023/07/20 04:10:06;;;;;;;4.45;1.75;;;18.30;72.80;;;;;;5039485;28;20039;-64
2023/07/20 04:12:35;;;;;;;4.95;1.92;;;18.30;72.80;;;;;;5040829;28;20025;-65
2023/07/20 04:15:01;;;;;;;3.88;2.00;;;18.30;72.80;;;;;;5046463;28;20020;-64
2023/07/20 04:17:27;;;;;;;3.50;1.52;;;18.30;72.80;;;;;;5043373;28;20124;-64
2023/07/20 04:19:53;;;;;;;4.07;2.05;;;18.30;72.80;;;;;;5043798;28;20128;-64
2023/07/20 04:22:19;;;;;;;5.45;2.00;;;18.30;72.90;;;;;;5046276;28;20047;-64
2023/07/20 04:24:44;;;;;;;3.35;1.95;;;18.30;72.90;;;;;;5044854;28;20457;-64
2023/07/20 04:27:10;;;;;;;4.13;1.80;;;18.30;72.90;;;;;;5040655;28;20037;-64
2023/07/20 04:29:36;;;;;;;4.90;1.90;;;18.30;72.80;;;;;;5043767;28;20045;-64
2023/07/20 04:32:02;;;;;;;3.33;1.63;;;18.30;72.80;;;;;;5059968;28;20036;-64
2023/07/20 04:34:28;;;;;;;4.20;1.83;;;18.30;72.70;;;;;;5042830;28;20021;-64
2023/07/20 04:36:54;;;;;;;3.75;1.73;;;18.30;72.70;;;;;;5021863;28;20029;-64
2023/07/20 04:39:22;;;;;;;3.13;1.77;;;18.30;72.80;;;;;;5052588;28;20021;-64
2023/07/20 04:41:48;;;;;;;4.30;2.08;;;18.30;72.80;;;;;;5042891;28;20029;-64
2023/07/20 04:44:16;;;;;;;4.00;1.75;;;18.30;72.80;;;;;;5045306;28;20120;-64
2023/07/20 04:46:42;;;;;;;4.43;1.80;;;18.30;72.80;;;;;;5049470;28;20021;-64
2023/07/20 04:49:07;;;;;;;4.22;2.10;;;18.40;72.90;;;;;;5049257;28;20064;-64
2023/07/20 04:51:37;;;;;;;3.45;1.70;;;18.40;72.90;;;;;;5050931;28;20016;-64
2023/07/20 04:54:03;;;;;;;4.18;1.90;;;18.30;72.80;;;;;;5065138;28;20032;-64
2023/07/20 04:56:33;;;;;;;3.63;1.70;;;18.30;72.70;;;;;;5045952;28;20089;-64
2023/07/20 04:59:00;;;;;;;3.70;1.80;;;18.40;72.70;;;;;;5045382;28;20037;-64
2023/07/20 05:01:28;;;;;;;2.95;1.42;;;18.40;72.60;;;;;;5050870;28;20033;-64
2023/07/20 05:03:54;;;;;;;4.15;1.63;;;18.40;72.50;;;;;;5051729;28;20345;-64
2023/07/20 05:06:20;;;;;;;3.50;1.55;;;18.50;72.60;;;;;;5046515;28;20025;-64
2023/07/20 05:08:46;;;;;;;3.85;1.50;;;18.50;72.50;;;;;;5052338;28;20052;-64
2023/07/20 05:11:12;;;;;;;2.97;1.50;;;18.50;72.50;;;;;;5052407;28;20065;-64
2023/07/20 05:13:38;;;;;;;4.30;1.70;;;18.50;72.30;;;;;;5050301;28;20357;-64
2023/07/20 05:16:04;;;;;;;3.47;1.73;;;18.50;72.30;;;;;;5052146;28;20112;-65
2023/07/20 05:18:31;;;;;;;3.85;1.55;;;18.60;72.20;;;;;;5031620;28;20029;-65
2023/07/20 05:20:57;;;;;;;4.95;1.73;;;18.60;72.10;;;;;;5052330;28;20447;-65
2023/07/20 05:23:22;;;;;;;3.67;1.63;;;18.70;72.00;;;;;;5051341;28;20039;-65
2023/07/20 05:25:59;;;;;;;4.18;1.80;;;19.00;71.20;;;;;;5045687;28;20084;-65
2023/07/20 05:28:28;;;;;;;3.47;1.67;;;19.10;70.80;;;;;;5051990;28;20164;-65
2023/07/20 05:30:55;;;;;;;4.05;1.70;;;19.10;70.80;;;;;;5050604;28;20377;-64
2023/07/20 05:33:21;;;;;;;3.08;1.58;;;19.10;70.70;;;;;;5052747;28;20028;-64
2023/07/20 05:35:47;;;;;;;4.15;1.70;;;19.10;70.60;;;;;;5050030;28;20029;-65
2023/07/20 05:38:13;;;;;;;2.75;1.40;;;19.10;70.50;;;;;;5051663;28;20032;-65
2023/07/20 05:40:43;;;;;;;4.22;1.70;;;19.20;70.30;;;;;;5053297;28;20121;-64
2023/07/20 05:43:10;;;;;;;4.53;1.77;;;19.20;69.90;;;;;;5053643;28;20025;-64
2023/07/20 05:45:36;;;;;;;2.92;1.55;;;19.30;69.70;;;;;;5051056;28;20397;-64
2023/07/20 05:48:01;;;;;;;3.53;1.30;;;19.40;69.60;;;;;;5050863;28;20081;-64
2023/07/20 05:50:27;;;;;;;2.78;1.40;;;19.50;69.20;;;;;;5052437;28;20048;-64
2023/07/20 05:52:53;;;;;;;3.95;1.50;;;19.50;68.80;;;;;;5053555;28;20025;-64
2023/07/20 05:55:19;;;;;;;4.15;1.50;;;19.60;68.40;;;;;;5051756;28;20017;-64
2023/07/20 05:57:45;;;;;;;2.50;1.52;;;19.60;68.20;;;;;;5048647;28;20029;-64
2023/07/20 06:00:14;;;;;;;2.38;1.30;;;19.80;68.00;;;;;;5051178;28;20234;-64
2023/07/20 06:02:42;;;;;;;2.42;1.30;;;19.90;67.60;;;;;;5064716;28;20033;-64
2023/07/20 06:05:11;;;;;;;3.17;1.50;;;20.10;67.20;;;;;;5052593;28;20032;-65
2023/07/20 06:07:38;;;;;;;2.00;1.10;;;20.20;66.70;;;;;;5049271;28;20028;-65
2023/07/20 06:10:05;;;;;;;2.05;0.85;;;20.30;66.20;;;;;;5047593;28;20408;-65
2023/07/20 06:12:32;;;;;;;2.33;1.10;;;20.30;65.60;;;;;;5050631;28;20159;-64
2023/07/20 06:15:03;;;;;;;1.90;1.17;;;20.30;65.10;;;;;;5048205;28;20031;-63
2023/07/20 06:17:29;;;;;;;2.30;0.90;;;20.40;64.80;;;;;;5051059;28;20031;-63
2023/07/20 06:19:54;;;;;;;3.17;1.30;;;20.50;64.60;;;;;;5053181;28;20434;-64
2023/07/20 06:22:20;;;;;;;2.20;1.00;;;20.50;64.20;;;;;;5050010;28;20033;-64
2023/07/20 06:24:46;;;;;;;1.73;0.95;;;20.50;63.80;;;;;;5049655;28;20025;-63
2023/07/20 06:27:12;;;;;;;2.95;1.20;;;20.60;63.50;;;;;;5049991;28;20021;-64
2023/07/20 06:29:38;;;;;;;2.75;1.13;;;20.60;63.10;;;;;;5051638;28;20103;-65
2023/07/20 06:32:05;;;;;;;3.53;1.15;;;20.60;62.70;;;;;;5047885;28;20370;-64
2023/07/20 06:34:36;;;;;;;1.40;0.95;;;20.70;62.50;;;;;;5051181;28;20494;-64
2023/07/20 06:37:03;;;;;;;1.55;1.05;;;20.70;62.30;;;;;;5051686;28;20435;-64
2023/07/20 06:39:29;;;;;;;1.60;0.93;;;20.90;62.00;;;;;;5050944;28;20033;-65
2023/07/20 06:41:55;;;;;;;1.27;0.80;;;21.00;61.40;;;;;;5045763;28;20090;-64
2023/07/20 06:44:21;;;;;;;2.03;0.70;;;21.00;61.00;;;;;;5049843;28;20041;-65
2023/07/20 06:46:46;;;;;;;2.97;1.13;;;21.10;60.60;;;;;;5052684;28;20025;-65
2023/07/20 06:49:26;;;;;;;1.70;0.90;;;21.30;60.40;;;;;;5061613;28;20053;-65
2023/07/20 06:51:52;;;;;;;2.25;1.00;;;21.40;59.70;;;;;;5049931;28;20025;-64
2023/07/20 06:54:18;;;;;;;2.20;1.05;;;21.40;59.70;;;;;;5059332;28;20362;-64
2023/07/20 06:56:44;;;;;;;2.22;0.90;;;21.40;59.40;;;;;;5048531;28;20021;-65
2023/07/20 06:59:10;;;;;;;1.48;0.90;;;21.50;58.90;;;;;;5044273;28;20104;-64
2023/07/20 07:01:35;;;;;;;2.45;0.90;;;21.60;58.50;;;;;;5049537;28;20132;-64
2023/07/20 07:04:01;;;;;;;1.83;0.80;;;21.70;58.10;;;;;;5052338;28;20155;-64
2023/07/20 07:06:27;;;;;;;1.33;0.55;;;21.80;57.80;;;;;;5051274;28;20365;-65
2023/07/20 07:08:53;;;;;;;1.42;0.73;;;21.90;57.20;;;;;;5051000;28;20021;-65
2023/07/20 07:11:21;;;;;;;1.15;0.80;;;22.00;57.00;;;;;;5040402;28;20030;-66
2023/07/20 07:13:49;;;;;;;2.53;0.80;;;22.00;56.80;;;;;;5050828;28;20021;-65
2023/07/20 07:16:18;;;;;;;2.13;0.70;;;22.00;56.60;;;;;;5045853;28;20049;-64
2023/07/20 07:18:45;;;;;;;2.03;0.60;;;22.00;56.50;;;;;;5050500;28;20021;-64
2023/07/20 07:21:10;;;;;;;2.13;1.02;;;22.10;56.30;;;;;;5046263;28;20474;-65
2023/07/20 07:23:37;;;;;;;1.55;0.80;;;22.30;56.40;;;;;;5046177;28;20057;-65
2023/07/20 07:26:03;;;;;;;2.50;0.70;;;22.40;56.10;;;;;;5051176;28;20458;-65
2023/07/20 07:28:29;;;;;;;3.50;1.10;;;22.70;55.70;;;;;;5054629;28;20045;-65
2023/07/20 07:30:56;;;;;;;2.08;0.80;;;22.80;55.20;;;;;;5048569;28;20021;-65
2023/07/20 07:33:22;;;;;;;3.05;0.80;;;23.00;54.70;;;;;;5051414;28;20354;-65
2023/07/20 07:35:49;;;;;;;3.42;1.20;;;23.20;54.40;;;;;;5046045;28;20040;-65
2023/07/20 07:38:15;;;;;;;1.83;0.90;;;23.30;54.00;;;;;;5049502;28;20446;-65
2023/07/20 07:40:42;;;;;;;3.55;1.15;;;23.40;53.60;;;;;;5049770;28;20033;-65
2023/07/20 07:43:09;;;;;;;2.20;0.80;;;23.20;53.70;;;;;;5050624;28;20044;-65
2023/07/20 07:45:37;;;;;;;1.20;0.70;;;23.20;53.80;;;;;;5060852;28;20136;-65
2023/07/20 07:48:04;;;;;;;1.40;0.70;;;23.30;53.40;;;;;;5050861;28;20097;-65
2023/07/20 07:50:29;;;;;;;1.17;0.80;;;23.50;53.20;;;;;;5043879;28;20395;-65
2023/07/20 07:52:55;;;;;;;1.45;0.68;;;23.60;53.00;;;;;;5043842;28;20026;-66
2023/07/20 07:55:21;;;;;;;2.35;0.90;;;23.90;52.70;;;;;;5044122;28;20026;-65
2023/07/20 07:57:47;;;;;;;1.60;0.68;;;24.10;52.40;;;;;;5051877;28;20450;-65
2023/07/20 08:00:14;;;;;;;1.85;1.02;;;24.30;52.30;;;;;;5043787;28;20040;-65
2023/07/20 08:02:43;;;;;;;2.10;0.75;;;24.50;51.90;;;;;;5045958;28;20039;-65
2023/07/20 08:05:09;;;;;;;1.27;0.80;;;24.70;51.20;;;;;;5048786;28;20024;-65
2023/07/20 08:07:36;;;;;;;2.53;1.00;;;24.90;50.70;;;;;;5044599;28;20033;-65
2023/07/20 08:10:03;;;;;;;2.42;0.90;;;24.80;50.30;;;;;;5048699;28;21037;-65
2023/07/20 08:12:29;;;;;;;1.42;0.80;;;24.80;50.00;;;;;;5042941;28;20021;-66
2023/07/20 08:14:54;;;;;;;1.73;0.90;;;24.60;50.10;;;;;;5044730;28;20108;-66
2023/07/20 08:17:20;;;;;;;3.30;1.00;;;24.20;50.40;;;;;;5043748;28;20052;-67
2023/07/20 08:19:46;;;;;;;1.65;0.80;;;23.90;51.00;;;;;;5047718;28;20021;-67
2023/07/20 08:22:12;;;;;;;0.63;0.60;;;23.80;51.10;;;;;;5046988;28;20083;-65
2023/07/20 08:24:42;;;;;;;3.00;1.05;;;24.00;50.80;;;;;;5042337;28;20021;-65
2023/07/20 08:27:08;;;;;;;1.20;0.73;;;24.30;50.20;;;;;;5043739;28;20453;-65
2023/07/20 08:29:35;;;;;;;1.42;0.77;;;24.60;49.80;;;;;;5055535;28;20129;-65
2023/07/20 08:32:01;;;;;;;2.10;1.00;;;24.80;49.70;;;;;;5047559;28;21482;-64
2023/07/20 08:34:27;;;;;;;1.85;1.00;;;24.90;49.50;;;;;;5041406;28;20029;-66
2023/07/20 08:36:53;;;;;;;0.98;0.73;;;25.00;49.10;;;;;;5047853;28;20025;-65
2023/07/20 08:39:18;;;;;;;1.27;0.73;;;25.10;49.00;;;;;;5048960;28;20449;-66
2023/07/20 08:41:46;;;;;;;2.53;0.70;;;25.30;48.80;;;;;;5051067;28;20033;-67
2023/07/20 08:44:12;;;;;;;1.63;0.80;;;25.40;48.70;;;;;;5043356;28;20036;-66
2023/07/20 08:46:39;;;;;;;1.02;0.73;;;25.50;48.10;;;;;;5042613;28;20036;-67
2023/07/20 08:49:06;;;;;;;1.48;0.68;;;25.70;47.70;;;;;;5043368;28;20041;-68
2023/07/20 08:51:33;;;;;;;2.00;0.70;;;25.80;47.10;;;;;;5041579;28;20040;-67
2023/07/20 08:53:59;;;;;;;1.00;0.70;;;25.90;46.90;;;;;;5041572;28;20132;-67
2023/07/20 08:56:26;;;;;;;1.45;0.77;;;26.00;46.20;;;;;;5043507;28;20300;-67
2023/07/20 08:58:53;;;;;;;3.05;0.88;;;26.10;45.60;;;;;;5042971;28;20130;-66
2023/07/20 09:01:21;;;;;;;1.42;0.45;;;26.20;45.40;;;;;;5045280;28;20087;-67
2023/07/20 09:03:48;;;;;;;1.73;0.80;;;26.30;45.00;;;;;;5047118;28;20024;-68
2023/07/20 09:06:14;;;;;;;2.38;0.80;;;26.50;44.40;;;;;;5048298;28;20025;-67
2023/07/20 09:08:41;;;;;;;1.83;0.80;;;26.40;44.30;;;;;;5038196;28;20036;-66
2023/07/20 09:11:07;;;;;;;1.10;0.70;;;26.20;44.70;;;;;;5050839;28;20021;-68
2023/07/20 09:13:34;;;;;;;2.05;0.93;;;26.20;45.10;;;;;;5044504;28;20029;-64
2023/07/20 09:15:59;;;;;;;1.33;0.70;;;26.30;45.00;;;;;;5048898;28;20036;-66
2023/07/20 09:18:29;;;;;;;0.50;0.50;;;26.40;44.60;;;;;;5043257;28;20037;-67
2023/07/20 09:21:00;;;;;;;0.85;0.60;;;26.50;44.40;;;;;;5038018;28;20041;-67
2023/07/20 09:23:33;;;;;;;1.40;0.63;;;26.60;44.40;;;;;;5046249;28;20366;-67
2023/07/20 09:26:00;;;;;;;2.70;0.90;;;26.80;43.60;;;;;;5051946;28;20029;-66
2023/07/20 09:28:26;;;;;;;2.28;0.90;;;26.90;43.80;;;;;;5042412;28;20036;-68
2023/07/20 09:30:54;;;;;;;1.98;0.70;;;27.00;43.60;;;;;;5054213;28;20033;-67
2023/07/20 09:33:23;;;;;;;0.88;0.60;;;27.10;43.50;;;;;;5042694;28;20033;-66
2023/07/20 09:35:49;;;;;;;2.45;0.70;;;27.20;43.20;;;;;;5037453;28;20026;-67
2023/07/20 09:38:15;;;;;;;1.65;0.80;;;27.40;43.30;;;;;;5045469;28;20446;-67
2023/07/20 09:40:42;;;;;;;1.05;0.70;;;27.50;43.20;;;;;;5061685;28;20029;-67
2023/07/20 09:43:09;;;;;;;0.82;0.73;;;27.60;43.00;;;;;;5037140;28;20120;-67
2023/07/20 09:45:44;;;;;;;1.70;0.73;;;27.70;42.80;;;;;;5045117;28;20086;-68
2023/07/20 09:48:11;;;;;;;1.80;0.82;;;27.80;42.00;;;;;;5039268;28;20095;-68
2023/07/20 09:50:49;;;;;;;1.10;0.63;;;27.50;42.20;;;;;;5038014;28;20116;-66
2023/07/20 09:53:17;;;;;;;1.27;0.60;;;27.00;42.40;;;;;;5046361;28;20465;-66
2023/07/20 09:55:47;;;;;;;2.45;0.98;;;27.00;42.70;;;;;;5038963;28;20025;-66
2023/07/20 09:58:15;;;;;;;2.28;0.70;;;27.20;42.20;;;;;;5045276;28;20082;-66
2023/07/20 10:00:47;;;;;;;1.67;0.77;;;27.40;42.00;;;;;;5044575;28;20029;-67
2023/07/20 10:03:18;;;;;;;2.17;0.90;;;27.40;41.80;;;;;;5042325;28;20052;-66
2023/07/20 10:05:48;;;;;;;2.05;0.80;;;27.10;42.00;;;;;;5050300;28;20025;-67
2023/07/20 10:08:16;;;;;;;1.80;0.70;;;26.60;42.40;;;;;;5040311;28;20350;-67
2023/07/20 10:10:43;;;;;;;2.22;0.77;;;26.10;42.80;;;;;;5051940;28;20179;-66
2023/07/20 10:13:16;;;;;;;1.63;0.90;;;25.70;43.60;;;;;;5040600;28;20021;-67
2023/07/20 10:15:58;;;;;;;1.88;0.88;;;25.30;44.00;;;;;;5044792;28;20025;-68
2023/07/20 10:18:45;;;;;;;1.40;0.88;;;24.90;44.40;;;;;;5055803;28;20395;-66
2023/07/20 10:21:11;;;;;;;1.40;0.80;;;24.60;45.10;;;;;;5036910;28;20413;-65
2023/07/20 10:23:38;;;;;;;1.77;0.70;;;24.40;45.20;;;;;;5044659;28;20354;-68
2023/07/20 10:26:05;;;;;;;1.60;0.90;;;24.40;45.30;;;;;;5045264;28;20346;-66
2023/07/20 10:28:31;;;;;;;1.65;0.75;;;24.50;45.40;;;;;;5041592;28;20029;-66
2023/07/20 10:30:57;;;;;;;3.03;0.95;;;24.60;45.60;;;;;;5045083;28;20167;-67
2023/07/20 10:33:24;;;;;;;1.90;0.98;;;24.80;45.90;;;;;;5046494;28;20083;-68
2023/07/20 10:35:55;;;;;;;2.53;1.10;;;25.10;45.60;;;;;;5046607;28;20127;-67
2023/07/20 10:38:47;;;;;;;2.13;1.00;;;25.20;45.00;;;;;;5042395;28;20086;-68
2023/07/20 10:41:20;;;;;;;2.30;1.15;;;25.10;44.70;;;;;;5043449;28;20161;-68
2023/07/20 10:43:47;;;;;;;3.40;1.15;;;25.20;44.80;;;;;;5044344;28;20044;-69
2023/07/20 10:46:13;;;;;;;1.55;0.88;;;25.20;44.70;;;;;;5030921;28;20057;-69
2023/07/20 10:49:04;;;;;;;2.53;1.00;;;25.30;44.70;;;;;;5040980;28;20331;-70
2023/07/20 10:51:38;;;;;;;2.83;1.15;;;25.30;44.60;;;;;;5045644;28;20044;-70
2023/07/20 10:54:07;;;;;;;1.38;0.85;;;25.40;44.40;;;;;;5042407;28;20021;-70
2023/07/20 10:56:33;;;;;;;2.42;0.90;;;25.40;44.20;;;;;;5043672;28;20052;-70
2023/07/20 10:58:59;;;;;;;1.67;0.70;;;25.40;44.40;;;;;;5041282;28;20028;-70
2023/07/20 11:01:30;;;;;;;1.33;0.80;;;25.30;44.70;;;;;;5043541;28;20031;-70
2023/07/20 11:03:58;;;;;;;;;;;25.20;44.80;;;;;;5045959;28;20033;-70
2023/07/20 11:06:23;;;;;;;2.42;1.10;;;25.10;45.10;;;;;;5062506;28;20339;-70
2023/07/20 11:09:18;;;;;;;1.60;0.90;;;25.00;45.20;;;;;;5062676;28;20072;-70
2023/07/20 11:11:47;;;;;;;1.85;0.93;;;25.20;44.80;;;;;;5048178;28;20021;-70
2023/07/20 11:14:26;;;;;;;2.53;1.17;;;25.30;44.60;;;;;;5042513;28;20021;-70
2023/07/20 11:16:52;;;;;;;2.50;1.10;;;25.30;44.50;;;;;;5044754;28;20426;-70
2023/07/20 11:19:23;;;;;;;1.70;1.00;;;25.20;44.80;;;;;;5047610;28;20112;-70
2023/07/20 11:21:53;;;;;;;;;;;25.10;45.00;;;;;;5049735;28;20033;-70
2023/07/20 11:24:19;;;;;;;4.10;1.10;;;24.90;45.30;;;;;;5047922;28;19931;-70
2023/07/20 11:26:49;;;;;;;4.43;1.05;;;24.70;45.70;;;;;;5038334;28;20034;-70
2023/07/20 11:29:19;;;;;;;1.52;0.85;;;24.70;45.90;;;;;;5047706;28;20041;-70
2023/07/20 11:31:46;;;;;;;2.83;0.90;;;24.80;45.60;;;;;;5048384;28;20051;-70
2023/07/20 11:34:17;;;;;;;1.85;0.82;;;25.00;44.90;;;;;;5049212;28;20120;-70
2023/07/20 11:36:48;;;;;;;1.33;0.80;;;25.20;44.60;;;;;;5043269;28;20021;-70
2023/07/20 11:39:15;;;;;;;;;;;25.30;44.80;;;;;;5043653;28;20040;-70
2023/07/20 11:41:52;;;;;;;2.72;1.00;;;25.10;44.90;;;;;;5047394;28;19966;-70
2023/07/20 11:44:20;;;;;;;2.38;1.00;;;24.90;45.40;;;;;;5060543;28;20450;-70
2023/07/20 11:46:46;;;;;;;2.25;1.08;;;24.90;45.80;;;;;;5048275;28;20052;-70
2023/07/20 11:49:13;;;;;;;2.92;1.10;;;24.80;45.90;;;;;;5044298;28;20068;-71
2023/07/20 11:51:39;;;;;;;3.63;1.20;;;24.70;46.10;;;;;;5045086;28;20029;-70
2023/07/20 11:54:08;;;;;;;1.63;1.00;;;24.60;46.70;;;;;;5044706;28;20108;-71
2023/07/20 11:56:33;;;;;;;3.03;1.05;;;24.40;47.20;;;;;;5044522;28;20045;-69
2023/07/20 11:59:01;;;;;;;3.50;1.27;;;24.30;47.40;;;;;;5045156;28;20047;-68
2023/07/20 12:01:35;;;;;;;1.95;1.27;;;24.10;47.50;;;;;;5046349;28;20070;-70
2023/07/20 12:04:04;;;;;;;1.52;1.00;;;23.90;47.80;;;;;;5063864;28;20035;-73
2023/07/20 12:06:30;;;;;;;2.17;1.13;;;23.80;48.00;;;;;;5044020;28;20091;-72
2023/07/20 12:08:58;;;;;;;1.83;1.08;;;23.70;48.30;;;;;;5042936;28;20044;-72
2023/07/20 12:11:40;;;;;;;1.85;0.85;;;23.80;48.30;;;;;;5048304;28;20041;-71
2023/07/20 12:14:09;;;;;;;3.55;1.08;;;24.10;48.30;;;;;;5046112;28;20182;-71
2023/07/20 12:16:37;;;;;;;3.10;1.10;;;24.30;47.90;;;;;;5045206;28;20426;-71
2023/07/20 12:19:08;;;;;;;2.47;1.08;;;24.70;47.50;;;;;;5047558;28;20028;-71
2023/07/20 12:21:39;;;;;;;3.53;1.40;;;24.90;47.00;;;;;;5045125;28;20021;-71
2023/07/20 12:24:06;;;;;;;1.90;1.10;;;25.00;46.70;;;;;;5047289;28;20044;-71
2023/07/20 12:26:33;;;;;;;2.25;1.10;;;25.10;46.50;;;;;;5046498;28;20044;-70
2023/07/20 12:29:00;;;;;;;1.83;0.90;;;25.10;46.50;;;;;;5049261;28;20110;-70
2023/07/20 12:31:27;;;;;;;2.53;1.20;;;25.20;46.40;;;;;;5047369;28;20017;-69
2023/07/20 12:33:55;;;;;;;2.25;0.90;;;25.40;46.00;;;;;;5043724;28;20025;-69
2023/07/20 12:36:21;;;;;;;1.27;0.85;;;25.50;45.80;;;;;;5045739;28;20041;-70
2023/07/20 12:38:47;;;;;;;1.58;0.90;;;25.50;45.80;;;;;;5064872;28;20039;-70
2023/07/20 12:41:13;;;;;;;0.93;0.60;;;25.40;46.10;;;;;;5045297;28;20021;-69
2023/07/20 12:43:40;;;;;;;1.70;0.75;;;25.30;46.10;;;;;;5040044;28;20073;-70
2023/07/20 12:46:06;;;;;;;3.15;0.90;;;25.30;46.00;;;;;;5043625;28;20029;-70
2023/07/20 12:48:31;;;;;;;2.00;1.08;;;25.30;45.70;;;;;;5061065;28;20113;-70
2023/07/20 12:50:58;;;;;;;2.10;0.90;;;25.30;45.60;;;;;;5047446;28;20436;-69